Time;durP1;ratioP1;P1;durP2;ratioP2;P2;SDS_P1;SDS_P2;PMS_P1;PMS_P2;Temp;Humidity;BMP_temperature;BMP_pressure;BME280_temperature;BME280_humidity;BME280_pressure;Samples;Min_cycle;Max_cycle;Signal;HPM_P1;HPM_P2
2023/07/28 00:01:19;;;;;;;4.30;4.00;;;;;;;;;;5098758;27;20023;-73
2023/07/28 00:03:45;;;;;;;4.45;4.05;;;;;;;;;;5100307;28;20044;-73
2023/07/28 00:06:10;;;;;;;4.38;4.07;;;;;;;;;;5097044;28;20055;-73
2023/07/28 00:08:36;;;;;;;4.90;4.50;;;;;;;;;;5097755;28;20024;-73
2023/07/28 00:11:01;;;;;;;3.90;3.60;;;;;;;;;;5096020;28;20107;-73
2023/07/28 00:13:26;;;;;;;4.25;3.95;;;;;;;;;;5098526;28;20031;-73
2023/07/28 00:15:51;;;;;;;4.60;4.30;;;;;;;;;;5093235;28;20015;-75
2023/07/28 00:18:18;;;;;;;4.05;3.75;;;;;;;;;;5098905;28;20031;-73
2023/07/28 00:20:43;;;;;;;4.10;3.72;;;;;;;;;;5095829;28;20019;-73
2023/07/28 00:23:09;;;;;;;4.90;4.50;;;;;;;;;;5097401;28;20024;-73
2023/07/28 00:25:34;;;;;;;4.28;3.97;;;;;;;;;;5096910;28;20015;-74
2023/07/28 00:27:59;;;;;;;5.45;4.10;;;;;;;;;;5097330;28;20023;-74
2023/07/28 00:30:25;;;;;;;4.22;3.83;;;;;;;;;;5095341;28;20031;-74
2023/07/28 00:32:50;;;;;;;4.50;4.10;;;;;;;;;;5098395;28;20352;-73
2023/07/28 00:35:16;;;;;;;4.22;3.92;;;;;;;;;;5098840;28;20049;-74
2023/07/28 00:37:41;;;;;;;4.20;3.95;;;;;;;;;;5099320;28;20107;-73
2023/07/28 00:40:07;;;;;;;4.72;4.13;;;;;;;;;;5098547;28;20447;-75
2023/07/28 00:42:32;;;;;;;4.28;3.88;;;;;;;;;;5095852;28;20450;-73
2023/07/28 00:44:57;;;;;;;4.53;4.13;;;;;;;;;;5098784;28;20088;-74
2023/07/28 00:47:23;;;;;;;4.57;3.88;;;;;;;;;;5099988;28;20443;-73
2023/07/28 00:49:48;;;;;;;4.00;3.63;;;;;;;;;;5097389;28;20457;-74
2023/07/28 00:52:13;;;;;;;4.13;3.72;;;;;;;;;;5096349;28;20111;-73
2023/07/28 00:54:39;;;;;;;5.65;4.05;;;;;;;;;;5098190;28;20427;-73
2023/07/28 00:57:05;;;;;;;4.50;4.10;;;;;;;;;;5095659;28;20377;-73
2023/07/28 00:59:30;;;;;;;4.45;4.05;;;;;;;;;;5096596;28;20027;-72
2023/07/28 01:01:56;;;;;;;5.43;3.95;;;;;;;;;;5099088;28;20036;-73
2023/07/28 01:04:21;;;;;;;4.07;3.78;;;;;;;;;;5100443;28;20107;-74
2023/07/28 01:06:50;;;;;;;4.45;3.85;;;;;;;;;;5099434;28;20024;-73
2023/07/28 01:09:18;;;;;;;4.40;4.03;;;;;;;;;;5100335;28;20019;-73
2023/07/28 01:11:56;;;;;;;4.53;4.13;;;;;;;;;;5098795;28;20038;-73
2023/07/28 01:14:22;;;;;;;4.22;3.92;;;;;;;;;;5096126;28;20400;-73
2023/07/28 01:16:47;;;;;;;4.10;3.80;;;;;;;;;;5099014;28;20015;-73
2023/07/28 01:19:15;;;;;;;4.72;4.32;;;;;;;;;;5096802;28;20024;-73
2023/07/28 01:21:43;;;;;;;4.88;4.47;;;;;;;;;;5094825;28;20343;-73
2023/07/28 01:24:15;;;;;;;4.78;4.47;;;;;;;;;;5099455;28;20032;-73
2023/07/28 01:26:41;;;;;;;4.20;3.80;;;;;;;;;;5098913;28;20019;-72
2023/07/28 01:29:06;;;;;;;4.93;3.75;;;;;;;;;;5102185;28;20024;-73
2023/07/28 01:31:32;;;;;;;4.60;4.20;;;;;;;;;;5101363;28;20031;-73
2023/07/28 01:33:57;;;;;;;4.30;4.00;;;;;;;;;;5100502;28;20032;-72
2023/07/28 01:36:22;;;;;;;4.20;3.83;;;;;;;;;;5102193;28;20515;-73
2023/07/28 01:38:48;;;;;;;4.88;4.28;;;;;;;;;;5103610;28;20425;-72
2023/07/28 01:41:13;;;;;;;4.60;4.20;;;;;;;;;;5097321;28;20031;-72
2023/07/28 01:43:38;;;;;;;4.55;4.10;;;;;;;;;;5102261;28;20113;-74
2023/07/28 01:46:04;;;;;;;4.82;4.35;;;;;;;;;;5104152;28;20754;-72
2023/07/28 01:48:29;;;;;;;4.88;4.55;;;;;;;;;;5102333;28;20024;-72
2023/07/28 01:50:55;;;;;;;5.22;4.43;;;;;;;;;;5102295;28;20024;-73
2023/07/28 01:53:20;;;;;;;4.60;4.20;;;;;;;;;;5099700;28;20019;-73
2023/07/28 01:55:46;;;;;;;4.28;3.88;;;;;;;;;;5102958;28;20023;-73
2023/07/28 01:58:11;;;;;;;4.88;3.83;;;;;;;;;;5101117;28;20038;-73
2023/07/28 02:00:36;;;;;;;4.40;4.10;;;;;;;;;;5101771;28;20392;-73
2023/07/28 02:03:03;;;;;;;4.90;4.50;;;;;;;;;;5100869;28;20428;-73
2023/07/28 02:05:28;;;;;;;4.70;4.30;;;;;;;;;;5100614;28;20035;-73
2023/07/28 02:07:54;;;;;;;4.75;4.35;;;;;;;;;;5101493;28;20032;-73
2023/07/28 02:10:19;;;;;;;4.57;4.15;;;;;;;;;;5098870;28;20384;-72
2023/07/28 02:12:45;;;;;;;4.15;3.85;;;;;;;;;;5099980;28;20116;-73
2023/07/28 02:15:13;;;;;;;4.18;3.88;;;;;;;;;;5099147;28;20051;-73
2023/07/28 02:17:38;;;;;;;4.15;3.85;;;;;;;;;;5101224;28;20826;-73
2023/07/28 02:20:04;;;;;;;4.90;4.40;;;;;;;;;;5100655;28;20500;-73
2023/07/28 02:22:29;;;;;;;4.60;4.20;;;;;;;;;;5100393;28;20046;-72
2023/07/28 02:24:55;;;;;;;5.07;4.10;;;;;;;;;;5100634;28;20035;-72
2023/07/28 02:27:20;;;;;;;5.80;4.40;;;;;;;;;;5102954;28;20032;-73
2023/07/28 02:29:46;;;;;;;6.75;4.32;;;;;;;;;;5100102;28;20407;-72
2023/07/28 02:32:11;;;;;;;4.55;4.25;;;;;;;;;;5104520;28;20403;-72
2023/07/28 02:34:36;;;;;;;4.68;4.28;;;;;;;;;;5100375;28;20480;-72
2023/07/28 02:37:02;;;;;;;4.57;4.28;;;;;;;;;;5100753;28;20047;-73
2023/07/28 02:39:27;;;;;;;4.68;4.28;;;;;;;;;;5098130;28;20036;-73
2023/07/28 02:41:53;;;;;;;4.88;4.40;;;;;;;;;;5099910;28;20037;-73
2023/07/28 02:44:18;;;;;;;4.90;4.50;;;;;;;;;;5096324;28;20096;-72
2023/07/28 02:46:43;;;;;;;4.60;4.20;;;;;;;;;;5098797;28;20019;-73
2023/07/28 02:49:09;;;;;;;4.70;4.40;;;;;;;;;;5098162;28;20019;-72
2023/07/28 02:51:34;;;;;;;4.35;3.92;;;;;;;;;;5097929;28;20365;-73
2023/07/28 02:54:00;;;;;;;4.88;4.47;;;;;;;;;;5101113;28;20067;-73
2023/07/28 02:56:25;;;;;;;4.90;4.55;;;;;;;;;;5099653;28;20016;-73
2023/07/28 02:58:50;;;;;;;5.35;4.57;;;;;;;;;;5096090;28;20023;-75
2023/07/28 03:01:17;;;;;;;4.88;4.47;;;;;;;;;;5099638;27;20478;-73
2023/07/28 03:03:42;;;;;;;4.38;4.07;;;;;;;;;;5097864;28;20049;-73
2023/07/28 03:06:07;;;;;;;5.00;4.60;;;;;;;;;;5099411;28;20116;-72
2023/07/28 03:08:33;;;;;;;4.72;4.32;;;;;;;;;;5102688;28;20031;-75
2023/07/28 03:10:58;;;;;;;5.18;4.75;;;;;;;;;;5099052;28;20100;-72
2023/07/28 03:13:23;;;;;;;4.70;4.40;;;;;;;;;;5097851;28;20039;-73
2023/07/28 03:15:49;;;;;;;5.95;4.20;;;;;;;;;;5101475;28;20102;-73
2023/07/28 03:18:14;;;;;;;4.95;4.55;;;;;;;;;;5101348;28;20427;-72
2023/07/28 03:20:39;;;;;;;5.07;4.68;;;;;;;;;;5100238;27;20016;-72
2023/07/28 03:23:05;;;;;;;4.88;4.47;;;;;;;;;;5099084;28;20039;-72
2023/07/28 03:25:30;;;;;;;4.40;4.07;;;;;;;;;;5095747;28;21159;-72
2023/07/28 03:27:55;;;;;;;5.47;4.97;;;;;;;;;;5102133;28;20023;-73
2023/07/28 03:30:21;;;;;;;4.57;4.05;;;;;;;;;;5102116;28;20035;-72
2023/07/28 03:32:46;;;;;;;4.38;3.95;;;;;;;;;;5098476;28;20110;-72
2023/07/28 03:35:12;;;;;;;4.30;4.00;;;;;;;;;;5100493;28;20776;-71
2023/07/28 03:37:38;;;;;;;4.50;4.20;;;;;;;;;;5100949;28;20050;-71
2023/07/28 03:40:03;;;;;;;4.97;4.47;;;;;;;;;;5100715;28;20076;-72
2023/07/28 03:42:29;;;;;;;4.53;4.13;;;;;;;;;;5097740;27;20138;-72
2023/07/28 03:44:54;;;;;;;4.55;4.15;;;;;;;;;;5099726;28;20032;-72
2023/07/28 03:47:19;;;;;;;4.65;4.25;;;;;;;;;;5097574;28;20455;-74
2023/07/28 03:49:45;;;;;;;5.07;4.57;;;;;;;;;;5097629;28;20020;-72
2023/07/28 03:52:10;;;;;;;6.25;4.60;;;;;;;;;;5098588;27;20062;-73
2023/07/28 03:54:35;;;;;;;4.80;4.40;;;;;;;;;;5097811;28;20042;-74
2023/07/28 03:57:01;;;;;;;5.43;4.60;;;;;;;;;;5095635;27;20024;-71
2023/07/28 03:59:26;;;;;;;5.88;5.05;;;;;;;;;;5099046;28;20038;-71
2023/07/28 04:01:52;;;;;;;5.93;5.03;;;;;;;;;;5099409;27;20051;-75
2023/07/28 04:04:17;;;;;;;5.03;4.50;;;;;;;;;;5097176;28;20070;-72
2023/07/28 04:06:44;;;;;;;5.22;4.82;;;;;;;;;;5098844;28;20087;-72
2023/07/28 04:09:11;;;;;;;4.80;4.47;;;;;;;;;;5099483;28;20020;-73
2023/07/28 04:11:37;;;;;;;5.05;4.60;;;;;;;;;;5098549;28;20030;-72
2023/07/28 04:14:02;;;;;;;5.05;4.68;;;;;;;;;;5099390;28;20019;-72
2023/07/28 04:16:27;;;;;;;5.40;4.97;;;;;;;;;;5094551;28;20019;-74
2023/07/28 04:18:53;;;;;;;5.57;5.15;;;;;;;;;;5102321;28;20392;-72
2023/07/28 04:21:18;;;;;;;5.97;5.20;;;;;;;;;;5099781;28;20026;-74
2023/07/28 04:23:44;;;;;;;6.10;5.50;;;;;;;;;;5098523;28;20058;-73
2023/07/28 04:26:09;;;;;;;7.45;6.75;;;;;;;;;;5096439;28;20051;-73
2023/07/28 04:28:34;;;;;;;22.88;17.58;;;;;;;;;;5097574;28;20028;-74
2023/07/28 04:31:01;;;;;;;41.00;28.88;;;;;;;;;;5097386;28;20073;-72
2023/07/28 04:33:26;;;;;;;49.95;35.75;;;;;;;;;;5095685;28;20032;-72
2023/07/28 04:35:52;;;;;;;29.42;22.17;;;;;;;;;;5094575;28;20020;-73
2023/07/28 04:38:18;;;;;;;21.30;15.00;;;;;;;;;;5099184;28;20062;-72
2023/07/28 04:40:43;;;;;;;19.70;14.95;;;;;;;;;;5099058;28;20020;-72
2023/07/28 04:43:08;;;;;;;36.35;27.27;;;;;;;;;;5098086;28;20073;-72
2023/07/28 04:45:35;;;;;;;37.20;26.95;;;;;;;;;;5097425;28;20097;-72
2023/07/28 04:48:00;;;;;;;43.30;29.27;;;;;;;;;;5097722;28;20167;-72
2023/07/28 04:50:26;;;;;;;50.75;32.10;;;;;;;;;;5095088;28;20025;-73
2023/07/28 04:52:51;;;;;;;69.68;47.25;;;;;;;;;;5093968;28;20045;-72
2023/07/28 04:55:16;;;;;;;53.65;37.80;;;;;;;;;;5096780;28;20024;-71
2023/07/28 04:57:42;;;;;;;42.75;29.73;;;;;;;;;;5096446;28;20106;-75
2023/07/28 05:00:08;;;;;;;41.15;29.02;;;;;;;;;;5095743;28;20023;-72
2023/07/28 05:02:33;;;;;;;37.95;29.13;;;;;;;;;;5094860;28;20363;-73
2023/07/28 05:04:59;;;;;;;34.97;24.48;;;;;;;;;;5097851;28;20024;-71
2023/07/28 05:07:24;;;;;;;30.77;23.33;;;;;;;;;;5099569;28;20027;-71
2023/07/28 05:09:50;;;;;;;28.63;20.60;;;;;;;;;;5098236;28;20411;-71
2023/07/28 05:12:15;;;;;;;23.45;17.17;;;;;;;;;;5099465;28;20399;-73
2023/07/28 05:14:40;;;;;;;26.30;17.70;;;;;;;;;;5096489;28;20057;-73
2023/07/28 05:17:06;;;;;;;23.05;16.80;;;;;;;;;;5098340;28;20023;-73
2023/07/28 05:19:31;;;;;;;19.33;14.23;;;;;;;;;;5094942;28;20039;-73
2023/07/28 05:21:57;;;;;;;17.35;13.13;;;;;;;;;;5100203;28;20206;-72
2023/07/28 05:24:22;;;;;;;15.40;12.18;;;;;;;;;;5098825;28;20036;-74
2023/07/28 05:26:48;;;;;;;11.55;10.45;;;;;;;;;;5096357;28;20122;-72
2023/07/28 05:29:13;;;;;;;9.45;8.55;;;;;;;;;;5098069;28;20424;-72
2023/07/28 05:31:38;;;;;;;9.07;8.18;;;;;;;;;;5092867;28;20695;-73
2023/07/28 05:34:04;;;;;;;8.35;7.63;;;;;;;;;;5097967;28;20179;-73
2023/07/28 05:36:29;;;;;;;8.68;7.70;;;;;;;;;;5100203;28;20024;-73
2023/07/28 05:38:56;;;;;;;8.10;7.32;;;;;;;;;;5098353;28;20177;-73
2023/07/28 05:41:21;;;;;;;8.65;7.80;;;;;;;;;;5096771;28;20027;-73
2023/07/28 05:43:47;;;;;;;10.07;7.30;;;;;;;;;;5096443;28;20037;-73
2023/07/28 05:46:12;;;;;;;6.63;6.03;;;;;;;;;;5098428;28;20411;-73
2023/07/28 05:48:37;;;;;;;7.10;6.38;;;;;;;;;;5097093;28;20042;-73
2023/07/28 05:51:03;;;;;;;8.15;7.22;;;;;;;;;;5093834;28;20060;-73
2023/07/28 05:53:28;;;;;;;7.68;6.72;;;;;;;;;;5096444;28;20031;-72
2023/07/28 05:55:53;;;;;;;6.45;5.85;;;;;;;;;;5099374;28;20439;-73
2023/07/28 05:58:19;;;;;;;6.80;6.07;;;;;;;;;;5098295;28;20054;-73
2023/07/28 06:00:44;;;;;;;7.75;6.28;;;;;;;;;;5093075;28;20016;-73
2023/07/28 06:03:10;;;;;;;7.95;6.75;;;;;;;;;;5096305;28;20024;-74
2023/07/28 06:05:35;;;;;;;6.68;5.97;;;;;;;;;;5096528;28;20024;-74
2023/07/28 06:08:00;;;;;;;6.07;5.47;;;;;;;;;;5093572;28;20596;-75
2023/07/28 06:10:26;;;;;;;7.25;5.68;;;;;;;;;;5098882;28;20028;-74
2023/07/28 06:12:51;;;;;;;8.63;6.35;;;;;;;;;;5101584;28;20032;-75
2023/07/28 06:15:16;;;;;;;7.80;6.68;;;;;;;;;;5098706;28;20034;-73
2023/07/28 06:17:42;;;;;;;9.25;6.15;;;;;;;;;;5100529;28;20103;-74
2023/07/28 06:20:08;;;;;;;7.50;6.53;;;;;;;;;;5099599;28;20019;-73
2023/07/28 06:22:33;;;;;;;6.82;5.70;;;;;;;;;;5100258;28;20038;-71
2023/07/28 06:24:58;;;;;;;7.40;6.15;;;;;;;;;;5099853;28;20036;-74
2023/07/28 06:27:24;;;;;;;8.13;6.10;;;;;;;;;;5100310;28;20355;-71
2023/07/28 06:29:49;;;;;;;6.45;5.40;;;;;;;;;;5100590;28;20964;-71
2023/07/28 06:32:14;;;;;;;9.43;5.63;;;;;;;;;;5101995;28;20417;-74
2023/07/28 06:34:40;;;;;;;6.28;5.45;;;;;;;;;;5099497;28;20453;-73
2023/07/28 06:37:05;;;;;;;6.63;5.75;;;;;;;;;;5097413;28;20042;-72
2023/07/28 06:39:30;;;;;;;5.18;4.53;;;;;;;;;;5098894;28;20051;-72
2023/07/28 06:41:56;;;;;;;4.75;4.30;;;;;;;;;;5098449;28;20020;-71
2023/07/28 06:44:21;;;;;;;5.68;4.28;;;;;;;;;;5101163;28;20133;-72
2023/07/28 06:46:47;;;;;;;4.72;4.32;;;;;;;;;;5100347;27;20028;-72
2023/07/28 06:49:13;;;;;;;5.07;4.45;;;;;;;;;;5099881;28;20030;-72
2023/07/28 06:51:38;;;;;;;4.20;3.85;;;;;;;;;;5099532;28;20023;-74
2023/07/28 06:54:04;;;;;;;5.55;4.20;;;;;;;;;;5099725;28;20510;-73
2023/07/28 06:56:29;;;;;;;5.88;4.35;;;;;;;;;;5099122;28;20032;-72
2023/07/28 06:58:54;;;;;;;5.47;4.47;;;;;;;;;;5101615;28;20110;-73
2023/07/28 07:01:21;;;;;;;5.20;4.15;;;;;;;;;;5099018;28;20031;-72
2023/07/28 07:03:47;;;;;;;3.95;3.58;;;;;;;;;;5101480;28;20077;-72
2023/07/28 07:06:12;;;;;;;8.25;5.65;;;;;;;;;;5102626;27;20423;-72
2023/07/28 07:08:38;;;;;;;3.80;3.50;;;;;;;;;;5096232;28;20441;-74
2023/07/28 07:11:05;;;;;;;3.78;3.42;;;;;;;;;;5095315;28;20131;-72
2023/07/28 07:13:31;;;;;;;4.30;3.90;;;;;;;;;;5098231;28;20058;-73
2023/07/28 07:15:56;;;;;;;4.10;3.70;;;;;;;;;;5096213;28;20058;-73
2023/07/28 07:18:21;;;;;;;3.90;3.60;;;;;;;;;;5098281;28;20027;-73
2023/07/28 07:20:47;;;;;;;3.75;3.22;;;;;;;;;;5100544;28;20040;-72
2023/07/28 07:23:12;;;;;;;4.85;3.13;;;;;;;;;;5101236;28;20066;-72
2023/07/28 07:25:37;;;;;;;4.15;3.75;;;;;;;;;;5097298;28;20055;-73
2023/07/28 07:28:03;;;;;;;4.72;3.65;;;;;;;;;;5097700;27;20020;-71
2023/07/28 07:30:29;;;;;;;3.85;3.15;;;;;;;;;;5097482;28;20050;-74
2023/07/28 07:32:54;;;;;;;5.22;3.38;;;;;;;;;;5101171;28;20397;-70
2023/07/28 07:35:19;;;;;;;4.30;3.20;;;;;;;;;;5101934;28;20026;-72
2023/07/28 07:37:45;;;;;;;3.47;3.28;;;;;;;;;;5099069;28;20458;-72
2023/07/28 07:40:11;;;;;;;3.88;3.22;;;;;;;;;;5095389;28;20461;-72
2023/07/28 07:42:44;;;;;;;3.60;2.90;;;;;;;;;;5097965;27;20031;-75
2023/07/28 07:45:13;;;;;;;3.20;2.90;;;;;;;;;;5096631;28;20027;-71
2023/07/28 07:47:39;;;;;;;3.10;2.80;;;;;;;;;;5097584;28;20438;-71
2023/07/28 07:50:05;;;;;;;3.13;2.85;;;;;;;;;;5100163;28;20089;-71
2023/07/28 07:52:31;;;;;;;3.90;2.88;;;;;;;;;;5095664;28;20131;-72
2023/07/28 07:54:56;;;;;;;2.75;2.53;;;;;;;;;;5096005;28;20106;-72
2023/07/28 07:57:21;;;;;;;3.95;3.05;;;;;;;;;;5097719;28;20127;-72
2023/07/28 07:59:47;;;;;;;3.92;3.10;;;;;;;;;;5096449;28;20131;-72
2023/07/28 08:02:12;;;;;;;3.13;2.83;;;;;;;;;;5098720;28;20027;-72
2023/07/28 08:04:37;;;;;;;3.58;2.80;;;;;;;;;;5099441;28;20025;-74
2023/07/28 08:07:04;;;;;;;3.10;2.80;;;;;;;;;;5100835;28;20130;-72
2023/07/28 08:09:30;;;;;;;3.78;3.30;;;;;;;;;;5098408;28;20026;-73
2023/07/28 08:11:56;;;;;;;2.78;2.50;;;;;;;;;;5098431;28;20032;-71
2023/07/28 08:14:21;;;;;;;3.15;2.85;;;;;;;;;;5101175;28;20434;-73
2023/07/28 08:16:46;;;;;;;3.53;3.13;;;;;;;;;;5099804;28;20514;-71
2023/07/28 08:19:12;;;;;;;4.30;2.80;;;;;;;;;;5094787;28;20081;-72
2023/07/28 08:21:37;;;;;;;3.13;2.72;;;;;;;;;;5096833;27;20029;-74
2023/07/28 08:24:03;;;;;;;2.60;2.40;;;;;;;;;;5098479;28;20438;-73
2023/07/28 08:26:29;;;;;;;2.72;2.53;;;;;;;;;;5097936;28;20465;-72
2023/07/28 08:28:54;;;;;;;3.80;2.50;;;;;;;;;;5097746;28;20027;-71
2023/07/28 08:31:20;;;;;;;4.45;2.95;;;;;;;;;;5096137;28;20067;-72
2023/07/28 08:33:45;;;;;;;3.85;2.65;;;;;;;;;;5092999;28;20063;-72
2023/07/28 08:36:11;;;;;;;4.80;2.95;;;;;;;;;;5095576;28;20102;-72
2023/07/28 08:38:36;;;;;;;6.70;2.42;;;;;;;;;;5097315;28;20048;-72
2023/07/28 08:41:02;;;;;;;2.63;2.42;;;;;;;;;;5100104;28;20035;-73
2023/07/28 08:43:28;;;;;;;2.65;2.40;;;;;;;;;;5097620;28;20059;-72
2023/07/28 08:45:54;;;;;;;3.55;2.35;;;;;;;;;;5098106;28;20042;-72
2023/07/28 08:48:19;;;;;;;2.40;2.20;;;;;;;;;;5092191;28;20123;-73
2023/07/28 08:50:45;;;;;;;3.70;2.63;;;;;;;;;;5099974;28;20016;-73
2023/07/28 08:53:10;;;;;;;3.13;2.20;;;;;;;;;;5101808;28;20038;-73
2023/07/28 08:55:36;;;;;;;2.58;2.28;;;;;;;;;;5099367;27;20322;-76
2023/07/28 08:58:14;;;;;;;2.75;2.30;;;;;;;;;;5097643;28;20029;-73
2023/07/28 09:00:40;;;;;;;3.42;1.98;;;;;;;;;;5098007;28;20027;-74
2023/07/28 09:03:08;;;;;;;4.78;2.53;;;;;;;;;;5100021;28;20026;-74
2023/07/28 09:05:34;;;;;;;2.65;2.45;;;;;;;;;;5096593;28;20509;-73
2023/07/28 09:07:59;;;;;;;2.20;2.08;;;;;;;;;;5100205;28;20035;-76
2023/07/28 09:10:24;;;;;;;2.50;2.30;;;;;;;;;;5098203;28;20392;-74
2023/07/28 09:12:50;;;;;;;2.00;1.90;;;;;;;;;;5097789;28;20019;-74
2023/07/28 09:15:18;;;;;;;2.75;2.25;;;;;;;;;;5096368;28;20032;-72
2023/07/28 09:17:44;;;;;;;2.40;2.20;;;;;;;;;;5098509;28;20051;-74
2023/07/28 09:20:13;;;;;;;2.22;1.90;;;;;;;;;;5097848;28;20715;-73
2023/07/28 09:22:39;;;;;;;2.35;2.15;;;;;;;;;;5095204;28;20082;-74
2023/07/28 09:25:14;;;;;;;2.70;2.15;;;;;;;;;;5097794;28;20027;-75
2023/07/28 09:27:39;;;;;;;2.60;2.40;;;;;;;;;;5091844;28;20035;-73
2023/07/28 09:30:05;;;;;;;2.72;2.22;;;;;;;;;;5098447;28;20488;-72
2023/07/28 09:32:33;;;;;;;2.55;2.35;;;;;;;;;;5098218;28;20120;-75
2023/07/28 09:35:09;;;;;;;4.70;2.05;;;;;;;;;;5102304;28;20060;-72
2023/07/28 09:37:36;;;;;;;2.42;2.25;;;;;;;;;;5096782;28;20016;-74
2023/07/28 09:40:04;;;;;;;2.42;2.22;;;;;;;;;;5098492;28;20031;-73
2023/07/28 09:42:30;;;;;;;1.98;1.88;;;;;;;;;;5099123;28;20023;-74
2023/07/28 09:44:55;;;;;;;3.33;2.50;;;;;;;;;;5097075;28;20324;-74
2023/07/28 09:47:21;;;;;;;3.47;2.55;;;;;;;;;;5104367;28;20383;-73
2023/07/28 09:49:48;;;;;;;6.95;2.63;;;;;;;;;;5100268;28;20092;-74
2023/07/28 09:52:16;;;;;;;3.50;2.38;;;;;;;;;;5102068;28;20023;-75
2023/07/28 09:54:42;;;;;;;2.42;2.22;;;;;;;;;;5103163;27;20028;-73
2023/07/28 09:57:18;;;;;;;2.55;2.35;;;;;;;;;;5101833;28;20469;-76
2023/07/28 09:59:45;;;;;;;2.65;2.10;;;;;;;;;;5098207;28;20023;-73
2023/07/28 10:02:10;;;;;;;2.45;2.25;;;;;;;;;;5101429;27;20024;-75
2023/07/28 10:04:35;;;;;;;3.08;2.50;;;;;;;;;;5099263;28;20081;-73
2023/07/28 10:07:01;;;;;;;3.88;2.53;;;;;;;;;;5100019;28;20027;-72
2023/07/28 10:09:28;;;;;;;2.65;2.42;;;;;;;;;;5104073;28;20032;-72
2023/07/28 10:11:54;;;;;;;2.40;2.20;;;;;;;;;;5102363;28;20027;-75
2023/07/28 10:14:27;;;;;;;2.20;2.10;;;;;;;;;;5102474;28;20031;-72
2023/07/28 10:16:52;;;;;;;2.63;2.00;;;;;;;;;;5102584;28;20093;-75
2023/07/28 10:19:21;;;;;;;3.67;2.75;;;;;;;;;;5098755;28;20362;-73
2023/07/28 10:21:46;;;;;;;2.35;2.22;;;;;;;;;;5099051;28;20349;-73
2023/07/28 10:24:13;;;;;;;2.10;1.90;;;;;;;;;;5101258;28;20043;-74
2023/07/28 10:26:38;;;;;;;1.95;1.85;;;;;;;;;;5101128;28;20110;-75
2023/07/28 10:29:16;;;;;;;2.30;2.05;;;;;;;;;;5100861;28;20530;-75
2023/07/28 10:31:59;;;;;;;2.78;1.95;;;;;;;;;;5100778;28;20031;-74
2023/07/28 10:34:24;;;;;;;5.07;2.15;;;;;;;;;;5099696;28;20035;-74
2023/07/28 10:36:59;;;;;;;2.20;2.00;;;;;;;;;;5101988;28;20024;-74
2023/07/28 10:39:25;;;;;;;2.13;1.80;;;;;;;;;;5098000;28;20443;-74
2023/07/28 10:42:08;;;;;;;3.03;2.15;;;;;;;;;;5101518;28;20027;-73
2023/07/28 10:44:34;;;;;;;2.17;2.08;;;;;;;;;;5100892;28;20037;-76
2023/07/28 10:47:00;;;;;;;2.17;2.03;;;;;;;;;;5095442;28;20123;-74
2023/07/28 10:49:26;;;;;;;3.63;2.30;;;;;;;;;;5103323;28;20417;-74
2023/07/28 10:51:51;;;;;;;2.40;2.20;;;;;;;;;;5102996;28;20023;-74
2023/07/28 10:54:19;;;;;;;2.20;1.92;;;;;;;;;;5101385;28;20459;-76
2023/07/28 10:56:45;;;;;;;3.70;2.10;;;;;;;;;;5095667;28;20080;-73
2023/07/28 10:59:10;;;;;;;2.28;2.08;;;;;;;;;;5100380;28;20016;-74
2023/07/28 11:01:37;;;;;;;2.55;2.05;;;;;;;;;;5096900;27;20031;-74
2023/07/28 11:04:20;;;;;;;2.55;2.35;;;;;;;;;;5101853;27;20023;-75
2023/07/28 11:06:49;;;;;;;2.30;2.10;;;;;;;;;;5096004;28;20038;-75
2023/07/28 11:09:16;;;;;;;2.33;2.20;;;;;;;;;;5097037;28;20032;-74
2023/07/28 11:11:42;;;;;;;1.92;1.83;;;;;;;;;;5101455;28;20031;-73
2023/07/28 11:14:08;;;;;;;2.10;2.00;;;;;;;;;;5094638;28;20714;-74
2023/07/28 11:16:35;;;;;;;3.38;2.25;;;;;;;;;;5099595;28;20038;-74
2023/07/28 11:19:02;;;;;;;2.40;2.20;;;;;;;;;;5096096;28;20335;-74
2023/07/28 11:21:27;;;;;;;1.85;1.75;;;;;;;;;;5099100;28;20043;-74
2023/07/28 11:23:53;;;;;;;2.30;2.10;;;;;;;;;;5097774;28;20036;-74
2023/07/28 11:26:19;;;;;;;2.53;1.77;;;;;;;;;;5100032;28;20031;-73
2023/07/28 11:28:46;;;;;;;2.20;1.80;;;;;;;;;;5099491;28;20442;-73
2023/07/28 11:31:11;;;;;;;5.28;2.47;;;;;;;;;;5100564;28;20019;-75
2023/07/28 11:33:36;;;;;;;2.00;1.90;;;;;;;;;;5098791;28;20035;-75
2023/07/28 11:36:02;;;;;;;2.85;1.90;;;;;;;;;;5100291;28;20035;-73
2023/07/28 11:38:29;;;;;;;2.20;2.00;;;;;;;;;;5101257;28;20461;-74
2023/07/28 11:40:54;;;;;;;2.88;2.10;;;;;;;;;;5102326;28;20027;-77
2023/07/28 11:43:21;;;;;;;2.17;2.08;;;;;;;;;;5096480;28;20027;-74
2023/07/28 11:45:47;;;;;;;1.90;1.80;;;;;;;;;;5100388;28;21186;-73
2023/07/28 11:48:14;;;;;;;2.40;2.20;;;;;;;;;;5100721;28;20105;-74
2023/07/28 11:50:41;;;;;;;2.03;1.83;;;;;;;;;;5098493;28;20032;-74
2023/07/28 11:53:07;;;;;;;2.95;2.03;;;;;;;;;;5098657;28;20020;-76
2023/07/28 11:55:33;;;;;;;4.78;2.20;;;;;;;;;;5099961;28;20108;-74
2023/07/28 11:58:01;;;;;;;2.00;1.90;;;;;;;;;;5099398;28;20047;-74
2023/07/28 12:00:37;;;;;;;2.85;2.38;;;;;;;;;;5097635;28;20016;-75
2023/07/28 12:03:09;;;;;;;2.30;2.10;;;;;;;;;;5100408;28;20123;-74
2023/07/28 12:05:34;;;;;;;4.78;2.30;;;;;;;;;;5101157;28;20027;-75
2023/07/28 12:08:00;;;;;;;2.67;2.45;;;;;;;;;;5099392;28;20059;-75
2023/07/28 12:10:26;;;;;;;2.10;2.00;;;;;;;;;;5100543;28;20032;-74
2023/07/28 12:12:51;;;;;;;4.35;2.20;;;;;;;;;;5099865;28;20039;-73
2023/07/28 12:15:21;;;;;;;2.17;2.03;;;;;;;;;;5097739;28;20028;-73
2023/07/28 12:18:06;;;;;;;2.17;2.00;;;;;;;;;;5101717;28;20452;-73
2023/07/28 12:20:38;;;;;;;3.47;2.42;;;;;;;;;;5097933;28;20897;-74
2023/07/28 12:23:04;;;;;;;3.25;2.13;;;;;;;;;;5094330;28;20032;-72
2023/07/28 12:25:30;;;;;;;2.65;2.33;;;;;;;;;;5099776;28;20032;-74
2023/07/28 12:27:55;;;;;;;1.90;1.80;;;;;;;;;;5100453;28;20059;-76
2023/07/28 12:30:21;;;;;;;2.22;2.10;;;;;;;;;;5098844;28;20457;-74
2023/07/28 12:32:46;;;;;;;4.18;2.55;;;;;;;;;;5095419;28;20442;-72
2023/07/28 12:35:12;;;;;;;2.75;2.10;;;;;;;;;;5093187;28;20102;-75
2023/07/28 12:37:37;;;;;;;3.33;2.53;;;;;;;;;;5097861;28;20459;-72
2023/07/28 12:40:05;;;;;;;3.13;2.28;;;;;;;;;;5096070;28;20038;-73
2023/07/28 12:42:30;;;;;;;3.50;1.95;;;;;;;;;;5097195;28;20126;-76
2023/07/28 12:44:55;;;;;;;2.20;2.00;;;;;;;;;;5098937;28;20499;-74
2023/07/28 12:47:21;;;;;;;2.65;2.10;;;;;;;;;;5098629;28;20034;-74
2023/07/28 12:49:46;;;;;;;3.63;2.40;;;;;;;;;;5099299;28;20031;-74
2023/07/28 12:52:11;;;;;;;1.92;1.83;;;;;;;;;;5100282;28;20444;-74
2023/07/28 12:54:38;;;;;;;4.25;2.40;;;;;;;;;;5098775;28;20431;-74
2023/07/28 12:57:03;;;;;;;3.63;2.20;;;;;;;;;;5095898;28;20024;-75
2023/07/28 12:59:29;;;;;;;2.50;2.30;;;;;;;;;;5099201;28;20362;-75
2023/07/28 13:01:54;;;;;;;2.75;2.53;;;;;;;;;;5093445;28;20126;-75
2023/07/28 13:04:20;;;;;;;2.70;2.50;;;;;;;;;;5100979;28;20031;-74
2023/07/28 13:06:45;;;;;;;2.20;2.00;;;;;;;;;;5095756;28;20469;-74
2023/07/28 13:09:11;;;;;;;2.55;2.20;;;;;;;;;;5097738;28;20346;-74
2023/07/28 13:11:36;;;;;;;2.30;2.10;;;;;;;;;;5098344;28;20023;-74
2023/07/28 13:14:01;;;;;;;2.15;2.05;;;;;;;;;;5096334;28;20034;-73
2023/07/28 13:16:27;;;;;;;2.10;2.00;;;;;;;;;;5100420;28;20110;-75
2023/07/28 13:18:52;;;;;;;2.90;2.28;;;;;;;;;;5099707;28;21217;-74
2023/07/28 13:21:17;;;;;;;2.85;2.42;;;;;;;;;;5097392;28;20425;-74
2023/07/28 13:23:43;;;;;;;3.85;2.38;;;;;;;;;;5098028;28;20032;-75
2023/07/28 13:26:08;;;;;;;2.55;2.33;;;;;;;;;;5096675;28;20043;-74
2023/07/28 13:28:36;;;;;;;2.67;2.47;;;;;;;;;;5096067;28;20045;-74
2023/07/28 13:31:02;;;;;;;4.43;2.25;;;;;;;;;;5099723;28;20425;-74
2023/07/28 13:33:28;;;;;;;2.65;2.40;;;;;;;;;;5097283;28;20036;-77
2023/07/28 13:35:53;;;;;;;3.03;2.25;;;;;;;;;;5100251;28;20126;-74
2023/07/28 13:38:19;;;;;;;2.70;2.20;;;;;;;;;;5093630;28;20101;-75
2023/07/28 13:40:44;;;;;;;2.30;2.20;;;;;;;;;;5095479;28;20148;-74
2023/07/28 13:43:09;;;;;;;2.30;2.10;;;;;;;;;;5099939;28;20455;-74
2023/07/28 13:45:35;;;;;;;2.75;2.22;;;;;;;;;;5097732;28;20208;-77
2023/07/28 13:48:00;;;;;;;2.45;2.00;;;;;;;;;;5096314;28;20037;-74
2023/07/28 13:50:25;;;;;;;2.08;1.98;;;;;;;;;;5096743;28;20099;-74
2023/07/28 13:52:51;;;;;;;2.30;2.10;;;;;;;;;;5096146;28;20403;-73
2023/07/28 13:55:16;;;;;;;2.33;2.13;;;;;;;;;;5098152;28;20028;-75
2023/07/28 13:57:42;;;;;;;2.30;2.10;;;;;;;;;;5096309;28;20106;-73
2023/07/28 14:00:10;;;;;;;4.82;2.08;;;;;;;;;;5095480;28;20024;-75
2023/07/28 14:02:36;;;;;;;2.58;2.38;;;;;;;;;;5097906;28;20024;-74
2023/07/28 14:05:01;;;;;;;4.80;2.30;;;;;;;;;;5099277;28;20378;-74
2023/07/28 14:07:27;;;;;;;2.17;2.08;;;;;;;;;;5097751;28;20020;-73
2023/07/28 14:09:52;;;;;;;2.10;1.90;;;;;;;;;;5097444;28;20660;-74
2023/07/28 14:12:18;;;;;;;2.45;2.25;;;;;;;;;;5093687;28;20059;-75
2023/07/28 14:14:43;;;;;;;2.17;1.77;;;;;;;;;;5098203;28;20027;-75
2023/07/28 14:17:09;;;;;;;2.40;2.20;;;;;;;;;;5095587;28;20019;-75
2023/07/28 14:19:34;;;;;;;4.88;2.40;;;;;;;;;;5095624;28;20420;-74
2023/07/28 14:21:59;;;;;;;2.88;2.03;;;;;;;;;;5097409;28;20027;-74
2023/07/28 14:24:25;;;;;;;2.47;2.22;;;;;;;;;;5096343;28;20059;-74
2023/07/28 14:26:50;;;;;;;2.60;2.40;;;;;;;;;;5098961;28;20422;-75
2023/07/28 14:29:15;;;;;;;3.22;2.20;;;;;;;;;;5098054;28;20034;-75
2023/07/28 14:31:41;;;;;;;3.25;2.30;;;;;;;;;;5099140;28;20031;-74
2023/07/28 14:34:06;;;;;;;2.10;1.90;;;;;;;;;;5100012;27;20553;-75